Cedar City, Utah Weather observations

Data are for observation ending at time listed.
 Day   Time    Ave.   Ave.  Ave.  Vector   Max.   Stn.    Total    Solar   Ave.  
  of    of     Air    Rel.  Wind   Wind    Wind   Baro.  Precip.   Rad.    Soil  
Year   Day     Temp.  Hum.  Speed  Dir.    Gust   Pres.                    Temp. 
2014   (MST)    F      %     mph   deg.    mph     mb.     in.     W/m2     F   
------------------------------------------------------------------------------
 106   17:40   58.9    24    3.1    61      6.5   819.8    0.00     255    53.0
 106   17:50   60.0    24    1.3   334      5.6   819.7    0.00     214    53.1
 106   18:00   60.1    24    2.7   356      6.9   819.6    0.00     199    53.1
 106   18:10   59.3    24    2.8    24      8.1   819.7    0.00     163    53.1
 106   18:20   59.1    24    2.0    11      5.4   819.7    0.00     141    53.1
 106   18:30   59.5    24    1.5    24      4.2   819.7    0.00     107    53.1
 106   18:40   58.7    24    2.4    19      5.6   819.7    0.00      67    53.2
 106   18:50   57.3    25    2.7    21      5.7   819.7    0.00      20    53.2
 106   19:00   56.5    26    2.4     8      5.0   819.8    0.00      17    53.2
 106   19:10   55.3    30    2.0    16      6.7   819.8    0.00       7    53.2
 106   19:20   55.4    26    3.3    31      7.2   819.9    0.00       2    53.2
 106   19:30   55.1    28    3.4    33      7.8   819.9    0.00       0    53.2
 106   19:40   54.7    29    2.8    27      6.6   820.0    0.00       0    53.2
 106   19:50   54.3    29    1.9    29      4.2   820.2    0.00       0    53.2
 106   20:00   53.6    30    1.5    39      2.8   820.3    0.00       0    53.2
 106   20:10   53.1    30    1.4    59      3.0   820.4    0.00       0    53.2
 106   20:20   52.2    31    0.2    37      1.5   820.5    0.00       0    53.1
 106   20:30   50.8    33    0.5   122      3.4   820.7    0.00       0    53.0
 106   20:40   50.5    32    2.6    93      4.7   820.7    0.00       0    53.0
 106   20:50   49.9    34    3.9    95      7.1   820.8    0.00       0    52.9
 106   21:00   49.4    35    3.8    92      7.9   820.8    0.00       0    52.8
 106   21:10   48.8    36    2.9   120      8.3   821.0    0.00       0    52.8
 106   21:20   48.0    38    1.5   138      3.4   821.1    0.00       0    52.7
 106   21:30   48.2    36    2.1   100      4.6   821.2    0.00       0    52.6
 106   21:40   48.0    37    3.1   104      6.1   821.1    0.00       0    52.6
 106   21:50   47.6    38    3.9    94      7.0   821.2    0.00       0    52.5
 106   22:00   47.0    39    3.9   101      6.7   821.3    0.00       0    52.4
 106   22:10   46.7    39    3.6   112      6.5   821.3    0.00       0    52.4
 106   22:20   46.1    40    3.5   110      6.0   821.3    0.00       0    52.3
 106   22:30   45.9    40    4.0   102      7.9   821.3    0.00       0    52.2
 106   22:40   45.9    40    4.4    88      7.3   821.4    0.00       0    52.2
 106   22:50   45.9    40    3.7    93      6.9   821.5    0.00       0    52.1
 106   23:00   45.7    40    3.9    88      7.1   821.5    0.00       0    52.0
 106   23:10   45.9    40    4.9    81     10.0   821.5    0.00       0    51.9
 106   23:20   45.9    40    6.3    76     10.9   821.6    0.00       0    51.9
 106   23:30   45.7    40    5.2    87     10.1   821.6    0.00       0    51.8
 106   23:40   45.6    41    3.8    97      7.4   821.6    0.00       0    51.7
 106   23:50   45.9    40    5.7    76     10.9   821.5    0.00       0    51.7
 107    0:00   46.4    39    8.1    81     13.2   821.5    0.00       0    51.6
 107    0:10   46.4    40    5.8    66      9.6   821.6    0.00       0    51.5
 107    0:20   46.1    40    5.6    74      9.3   821.5    0.00       0    51.4
 107    0:30   46.2    40    6.5    84     10.6   821.4    0.00       0    51.4
 107    0:40   45.9    41    4.8    90      8.4   821.5    0.00       0    51.3
 107    0:50   45.6    42    2.2   122      6.6   821.6    0.00       0    51.2
 107    1:00   44.6    44    2.4   174      4.5   821.7    0.00       0    51.1
 107    1:10   43.2    45    1.3   168      3.1   821.9    0.00       0    51.0
 107    1:20   42.0    46    1.4   159      2.4   822.0    0.00       0    51.0
 107    1:30   41.2    47    1.3   140      3.3   822.0    0.00       0    50.9
 107    1:40   41.0    46    1.1   120      1.8   822.0    0.00       0    50.8
 107    1:50   41.0    47    1.6   130      3.4   822.1    0.00       0    50.8
 107    2:00   40.9    48    2.5   145      4.2   822.1    0.00       0    50.7
 107    2:10   40.9    49    2.5   129      4.1   822.1    0.00       0    50.7
 107    2:20   42.0    47    1.7   143      4.7   822.1    0.00       0    50.6
 107    2:30   42.6    46    2.4    97      5.3   822.0    0.00       0    50.6
 107    2:40   42.2    48    1.7   157      4.7   822.0    0.00       0    50.5
 107    2:50   42.3    47    2.6    95      5.3   822.0    0.00       0    50.5
 107    3:00   42.8    46    3.9    94      8.0   822.0    0.00       0    50.4
 107    3:10   42.6    47    3.8    93      6.4   822.0    0.00       0    50.4
 107    3:20   42.9    46    3.4    93      7.5   822.0    0.00       0    50.3
 107    3:30   43.0    46    4.1    91      7.4   821.9    0.00       0    50.3
 107    3:40   43.4    46    5.0    89     10.3   821.7    0.00       0    50.2
 107    3:50   43.7    45    4.5   112      9.5   821.7    0.00       0    50.2
 107    4:00   43.8    45    2.6   135      9.2   821.7    0.00       0    50.1
 107    4:10   43.4    45    1.4   182      6.0   821.7    0.00       0    50.1
 107    4:20   42.2    47    1.8   139      5.1   821.8    0.00       0    50.0
 107    4:30   42.0    48    1.7   170      3.4   821.8    0.00       0    50.0
 107    4:40   41.0    49    2.0   152      3.8   821.8    0.00       0    49.9
 107    4:50   39.8    51    1.2   165      2.7   821.9    0.00       0    49.9
 107    5:00   39.4    53    1.2   126      2.0   821.9    0.00       0    49.8
 107    5:10   39.0    55    0.8   179      2.9   821.9    0.00       0    49.7
 107    5:20   38.5    56    1.2   194      3.1   822.0    0.00       0    49.7
 107    5:30   38.1    57    1.0   213      2.6   822.0    0.00       0    49.6
 107    5:40   37.8    59    1.1   196      2.1   822.0    0.00       0    49.6
 107    5:50   38.0    58    2.2   200      4.5   822.0    0.00       0    49.6
 107    6:00   37.4    58    2.5   200      4.6   822.1    0.00       3    49.5
 107    6:10   37.2    58    0.8   201      2.3   822.2    0.00       8    49.5
 107    6:20   37.3    58    1.7   194      2.6   822.4    0.00      13    49.4
 107    6:30   37.3    60    0.9   171      2.2   822.5    0.00      17    49.4
 107    6:40   38.1    59    1.0   157      2.1   822.6    0.00      64    49.3
 107    6:50   42.3    53    1.3   190      2.3   822.6    0.00     128    49.4
 107    7:00   47.0    45    1.9   195      3.3   822.7    0.00     160    49.3
 107    7:10   48.6    42    2.6   198      3.4   822.9    0.00     192    49.3
 107    7:20   51.3    38    2.4   195      3.4   823.0    0.00     225    49.3
 107    7:30   54.5    32    2.0   191      3.6   823.2    0.00     259    49.3
 107    7:40   54.8    32    1.7   195      4.0   823.2    0.00     298    49.3
 107    7:50   55.7    30    1.5   199      3.4   823.3    0.00     331    49.3
 107    8:00   54.9    32    2.2   243      5.3   823.3    0.00     362    49.3
 107    8:10   49.7    40    2.3   326      4.2   823.4    0.00     406    49.3
 107    8:20   49.6    40    1.7   322      3.8   823.5    0.00     426    49.3
 107    8:30   51.9    37    0.9   355      2.5   823.5    0.00     446    49.4
 107    8:40   52.9    35    1.5   302      3.5   823.5    0.00     492    49.4
 107    8:50   53.6    35    1.6   348      2.9   823.5    0.00     481    49.4
 107    9:00   54.6    33    1.8    62      3.6   823.2    0.00     554    49.4
 107    9:10   55.8    32    1.2    23      3.3   823.2    0.00     593    49.5
 107    9:20   56.2    32    1.7   338      3.5   823.2    0.00     614    49.5
 107    9:30   57.8    32    1.5   359      3.9   823.4    0.00     654    49.6
 107    9:40   58.0    32    2.2   306      4.8   823.4    0.00     686    49.6
 107    9:50   58.1    31    2.4   328      5.2   823.3    0.00     662    49.7
 107   10:00   58.2    30    2.4   297      4.6   823.5    0.00     594    49.7
 107   10:10   58.9    31    2.5    13      5.9   823.3    0.00     755    49.7
 107   10:20   59.6    29    2.4     7      5.0   823.5    0.00     777    49.8
 107   10:30   61.2    28    2.0    79      4.2   823.2    0.00     783    49.8
 107   10:40   62.3    28    2.6   294      7.6   823.1    0.00     792    49.8
 107   10:50   62.0    27    2.4    24      5.0   823.1    0.00     840    49.9
 107   11:00   63.4    26    2.1    87      4.7   822.8    0.00     854    49.9
 107   11:10   65.8    22    3.0   231      6.4   822.9    0.00     871    50.0
 107   11:20   65.4    25    2.3    40      5.6   822.6    0.00     861    50.0
 107   11:30   66.4    23    2.4    51      6.1   822.6    0.00     860    50.1
 107   11:40   68.7    19    5.3   242     18.4   822.4    0.00     901    50.1
 107   11:50   69.8    18    5.3   229     12.6   822.4    0.00     911    50.2
 107   12:00   68.3    18    6.2   260     14.7   822.5    0.00     920    50.3
 107   12:10   69.6    18    5.6   227     12.2   822.2    0.00     922    50.3
 107   12:20   69.8    17    6.4   234     14.5   822.3    0.00     925    50.4
 107   12:30   70.2    18    5.2   217     12.3   822.2    0.00     929    50.4
 107   12:40   70.3    18    6.9   224     13.3   822.1    0.00     929    50.5
 107   12:50   70.9    18    6.4   212     13.4   822.0    0.00     927    50.6
 107   13:00   70.6    18    6.5   221     13.1   822.2    0.00     923    50.6
 107   13:10   71.7    18    3.9   200     11.7   821.9    0.00     918    50.7
 107   13:20   72.4    17    6.4   202     14.1   822.0    0.00     909    50.8
 107   13:30   72.9    17    5.4   202     12.7   822.0    0.00     901    50.9
 107   13:40   72.4    18    3.9   219     10.7   822.0    0.00     895    51.0
 107   13:50   72.8    17    5.0   203     12.0   821.8    0.00     881    51.1
 107   14:00   73.1    16    6.2   194     13.3   821.6    0.00     866    51.2
 107   14:10   73.3    17    4.7   192     11.4   821.8    0.00     854    51.3
 107   14:20   73.9    16    5.3   219     10.7   821.6    0.00     840    51.4
 107   14:30   73.0    15    5.9   226     11.0   821.6    0.00     804    51.5
 107   14:40   73.5    15    5.5   215     15.2   821.7    0.00     789    51.6
 107   14:50   73.8    14    7.0   216     14.0   821.5    0.00     642    51.7
 107   15:00   73.1    15    5.5   215     17.3   821.4    0.00     735    51.7
 107   15:10   72.7    14    6.1   238     12.5   821.4    0.00     282    51.8
 107   15:20   73.0    15    5.0   197     12.6   821.3    0.00     273    51.9
 107   15:30   73.9    14    7.5   238     18.9   821.2    0.00     687    52.1
 107   15:40   73.1    14    9.0   218     20.5   821.2    0.00     643    52.2
 107   15:50   73.3    14    7.6   210     15.0   821.0    0.00     606    52.2
 107   16:00   74.0    14    6.9   218     15.9   821.2    0.00     557    52.4
 107   16:10   74.4    14    7.1   204     16.1   821.2    0.00     567    52.5
 107   16:20   74.0    14    6.7   215     15.4   821.0    0.00     538    52.6
 107   16:30   73.7    14    6.8   210     15.2   820.9    0.00     499    52.6
 107   16:40   73.3    14    8.6   207     17.6   821.0    0.00     454    52.8
 107   16:50   72.8    14    8.3   209     15.7   820.9    0.00     437    52.8
 107   17:00   72.8    14    9.5   202     18.7   820.8    0.00     393    52.9
 107   17:10   72.3    14    8.0   217     15.9   820.8    0.00     364    53.0
 107   17:20   72.8    14    8.1   199     18.5   820.7    0.00     338    53.1
 107   17:30   72.1    14    7.7   212     15.7   820.8    0.00     264    53.2

Return to Cedar City, Utah graphs page.


Western Regional Climate Center,wrcc@dri.edu